sensor_id;sensor_type;location;lat;lon;timestamp;P1;durP1;ratioP1;P2;durP2;ratioP2
66870;SDS011;53780;44.998;9.926;2022-07-01T00:02:01;4.55;;;2.30;;
66870;SDS011;53780;44.998;9.926;2022-07-01T00:05:05;8.10;;;2.40;;
66870;SDS011;53780;44.998;9.926;2022-07-01T00:08:21;5.88;;;2.35;;
66870;SDS011;53780;44.998;9.926;2022-07-01T00:11:25;6.82;;;2.45;;
66870;SDS011;53780;44.998;9.926;2022-07-01T00:14:29;6.93;;;2.13;;
66870;SDS011;53780;44.998;9.926;2022-07-01T00:17:33;4.30;;;1.90;;
66870;SDS011;53780;44.998;9.926;2022-07-01T00:20:37;5.63;;;1.80;;
66870;SDS011;53780;44.998;9.926;2022-07-01T00:23:41;4.57;;;1.30;;
66870;SDS011;53780;44.998;9.926;2022-07-01T00:26:46;3.40;;;1.20;;
66870;SDS011;53780;44.998;9.926;2022-07-01T00:29:50;4.10;;;1.02;;
66870;SDS011;53780;44.998;9.926;2022-07-01T00:32:53;3.15;;;0.90;;
66870;SDS011;53780;44.998;9.926;2022-07-01T00:35:58;2.73;;;0.90;;
66870;SDS011;53780;44.998;9.926;2022-07-01T00:39:02;3.35;;;1.05;;
66870;SDS011;53780;44.998;9.926;2022-07-01T00:42:06;4.88;;;0.90;;
66870;SDS011;53780;44.998;9.926;2022-07-01T00:45:10;4.43;;;0.90;;
66870;SDS011;53780;44.998;9.926;2022-07-01T00:48:15;3.67;;;1.00;;
66870;SDS011;53780;44.998;9.926;2022-07-01T00:51:20;3.00;;;0.90;;
66870;SDS011;53780;44.998;9.926;2022-07-01T00:54:24;3.30;;;0.60;;
66870;SDS011;53780;44.998;9.926;2022-07-01T00:57:30;2.90;;;0.80;;
66870;SDS011;53780;44.998;9.926;2022-07-01T01:00:36;2.60;;;0.80;;
66870;SDS011;53780;44.998;9.926;2022-07-01T01:03:44;2.38;;;0.80;;
66870;SDS011;53780;44.998;9.926;2022-07-01T01:06:47;3.03;;;0.90;;
66870;SDS011;53780;44.998;9.926;2022-07-01T01:09:51;2.78;;;0.88;;
66870;SDS011;53780;44.998;9.926;2022-07-01T01:12:56;4.10;;;0.80;;
66870;SDS011;53780;44.998;9.926;2022-07-01T01:16:01;3.15;;;0.77;;
66870;SDS011;53780;44.998;9.926;2022-07-01T01:19:05;4.18;;;1.00;;
66870;SDS011;53780;44.998;9.926;2022-07-01T01:22:09;5.57;;;1.43;;
66870;SDS011;53780;44.998;9.926;2022-07-01T01:25:14;3.25;;;1.52;;
66870;SDS011;53780;44.998;9.926;2022-07-01T01:28:19;4.85;;;1.20;;
66870;SDS011;53780;44.998;9.926;2022-07-01T01:31:29;3.17;;;1.00;;
66870;SDS011;53780;44.998;9.926;2022-07-01T01:34:36;3.63;;;0.75;;
66870;SDS011;53780;44.998;9.926;2022-07-01T01:37:41;3.50;;;1.10;;
66870;SDS011;53780;44.998;9.926;2022-07-01T01:40:47;6.82;;;1.50;;
66870;SDS011;53780;44.998;9.926;2022-07-01T01:43:53;4.05;;;1.23;;
66870;SDS011;53780;44.998;9.926;2022-07-01T01:46:57;5.15;;;1.00;;
66870;SDS011;53780;44.998;9.926;2022-07-01T01:50:00;2.97;;;0.82;;
66870;SDS011;53780;44.998;9.926;2022-07-01T01:53:04;4.47;;;0.93;;
66870;SDS011;53780;44.998;9.926;2022-07-01T01:56:08;2.78;;;0.80;;
66870;SDS011;53780;44.998;9.926;2022-07-01T01:59:12;2.88;;;0.82;;
66870;SDS011;53780;44.998;9.926;2022-07-01T02:02:16;3.60;;;0.90;;
66870;SDS011;53780;44.998;9.926;2022-07-01T02:05:19;2.90;;;0.80;;
66870;SDS011;53780;44.998;9.926;2022-07-01T02:08:24;3.67;;;0.80;;
66870;SDS011;53780;44.998;9.926;2022-07-01T02:11:27;2.70;;;0.80;;
66870;SDS011;53780;44.998;9.926;2022-07-01T02:14:31;4.32;;;0.82;;
66870;SDS011;53780;44.998;9.926;2022-07-01T02:17:35;3.47;;;0.90;;
66870;SDS011;53780;44.998;9.926;2022-07-01T02:20:39;4.30;;;0.93;;
66870;SDS011;53780;44.998;9.926;2022-07-01T02:23:43;2.93;;;0.87;;
66870;SDS011;53780;44.998;9.926;2022-07-01T02:26:46;3.60;;;0.90;;
66870;SDS011;53780;44.998;9.926;2022-07-01T02:29:50;3.50;;;1.30;;
66870;SDS011;53780;44.998;9.926;2022-07-01T02:32:54;4.70;;;1.20;;
66870;SDS011;53780;44.998;9.926;2022-07-01T02:35:58;4.68;;;1.30;;
66870;SDS011;53780;44.998;9.926;2022-07-01T02:39:02;6.03;;;1.30;;
66870;SDS011;53780;44.998;9.926;2022-07-01T02:42:06;3.40;;;1.20;;
66870;SDS011;53780;44.998;9.926;2022-07-01T02:45:29;5.55;;;1.20;;
66870;SDS011;53780;44.998;9.926;2022-07-01T02:48:33;7.05;;;1.83;;
66870;SDS011;53780;44.998;9.926;2022-07-01T02:51:37;3.83;;;1.08;;
66870;SDS011;53780;44.998;9.926;2022-07-01T02:54:41;4.63;;;1.40;;
66870;SDS011;53780;44.998;9.926;2022-07-01T02:57:45;4.22;;;1.00;;
66870;SDS011;53780;44.998;9.926;2022-07-01T03:00:52;4.45;;;1.10;;
66870;SDS011;53780;44.998;9.926;2022-07-01T03:03:57;3.85;;;1.25;;
66870;SDS011;53780;44.998;9.926;2022-07-01T03:07:01;4.05;;;1.10;;
66870;SDS011;53780;44.998;9.926;2022-07-01T03:10:05;3.40;;;1.10;;
66870;SDS011;53780;44.998;9.926;2022-07-01T03:13:09;6.05;;;1.10;;
66870;SDS011;53780;44.998;9.926;2022-07-01T03:16:13;4.28;;;1.10;;
66870;SDS011;53780;44.998;9.926;2022-07-01T03:19:18;4.07;;;1.38;;
66870;SDS011;53780;44.998;9.926;2022-07-01T03:22:22;3.85;;;1.65;;
66870;SDS011;53780;44.998;9.926;2022-07-01T03:25:27;4.40;;;1.83;;
66870;SDS011;53780;44.998;9.926;2022-07-01T03:28:31;4.78;;;1.90;;
66870;SDS011;53780;44.998;9.926;2022-07-01T03:31:37;5.75;;;1.90;;
66870;SDS011;53780;44.998;9.926;2022-07-01T03:34:42;4.70;;;1.90;;
66870;SDS011;53780;44.998;9.926;2022-07-01T03:37:48;5.75;;;2.00;;
66870;SDS011;53780;44.998;9.926;2022-07-01T03:40:52;4.17;;;1.87;;
66870;SDS011;53780;44.998;9.926;2022-07-01T03:43:56;6.35;;;1.60;;
66870;SDS011;53780;44.998;9.926;2022-07-01T03:47:00;3.67;;;1.70;;
66870;SDS011;53780;44.998;9.926;2022-07-01T03:50:05;4.68;;;1.83;;
66870;SDS011;53780;44.998;9.926;2022-07-01T03:53:10;7.00;;;1.85;;
66870;SDS011;53780;44.998;9.926;2022-07-01T03:56:32;6.00;;;2.00;;
66870;SDS011;53780;44.998;9.926;2022-07-01T03:59:36;3.80;;;1.77;;
66870;SDS011;53780;44.998;9.926;2022-07-01T04:02:41;8.25;;;2.30;;
66870;SDS011;53780;44.998;9.926;2022-07-01T04:05:46;5.95;;;2.00;;
66870;SDS011;53780;44.998;9.926;2022-07-01T04:08:49;6.53;;;1.90;;
66870;SDS011;53780;44.998;9.926;2022-07-01T04:11:53;5.40;;;2.30;;
66870;SDS011;53780;44.998;9.926;2022-07-01T04:14:58;8.30;;;2.40;;
66870;SDS011;53780;44.998;9.926;2022-07-01T04:18:02;7.55;;;2.50;;
66870;SDS011;53780;44.998;9.926;2022-07-01T04:21:06;7.05;;;3.20;;
66870;SDS011;53780;44.998;9.926;2022-07-01T04:24:29;7.07;;;2.70;;
66870;SDS011;53780;44.998;9.926;2022-07-01T04:27:35;7.80;;;3.20;;
66870;SDS011;53780;44.998;9.926;2022-07-01T04:30:39;9.38;;;3.45;;
66870;SDS011;53780;44.998;9.926;2022-07-01T04:33:43;9.65;;;3.20;;
66870;SDS011;53780;44.998;9.926;2022-07-01T04:36:49;6.70;;;2.50;;
66870;SDS011;53780;44.998;9.926;2022-07-01T04:39:53;6.22;;;2.90;;
66870;SDS011;53780;44.998;9.926;2022-07-01T04:42:57;5.10;;;2.17;;
66870;SDS011;53780;44.998;9.926;2022-07-01T04:46:00;6.10;;;2.70;;
66870;SDS011;53780;44.998;9.926;2022-07-01T04:49:04;4.80;;;2.47;;
66870;SDS011;53780;44.998;9.926;2022-07-01T04:52:08;7.47;;;2.60;;
66870;SDS011;53780;44.998;9.926;2022-07-01T04:55:12;7.32;;;2.28;;
66870;SDS011;53780;44.998;9.926;2022-07-01T04:58:16;5.47;;;2.07;;
66870;SDS011;53780;44.998;9.926;2022-07-01T05:01:20;7.47;;;1.95;;
66870;SDS011;53780;44.998;9.926;2022-07-01T05:04:24;4.55;;;2.00;;
66870;SDS011;53780;44.998;9.926;2022-07-01T05:07:29;6.82;;;2.20;;
66870;SDS011;53780;44.998;9.926;2022-07-01T05:10:33;6.95;;;2.30;;
66870;SDS011;53780;44.998;9.926;2022-07-01T05:13:37;7.00;;;2.10;;
66870;SDS011;53780;44.998;9.926;2022-07-01T05:16:41;4.45;;;1.70;;
66870;SDS011;53780;44.998;9.926;2022-07-01T05:19:45;6.72;;;1.85;;
66870;SDS011;53780;44.998;9.926;2022-07-01T05:23:07;5.40;;;2.10;;
66870;SDS011;53780;44.998;9.926;2022-07-01T05:26:10;6.45;;;2.38;;
66870;SDS011;53780;44.998;9.926;2022-07-01T05:29:19;7.37;;;2.70;;
66870;SDS011;53780;44.998;9.926;2022-07-01T05:32:23;7.45;;;2.70;;
66870;SDS011;53780;44.998;9.926;2022-07-01T05:35:26;9.85;;;2.30;;
66870;SDS011;53780;44.998;9.926;2022-07-01T05:38:30;5.88;;;2.30;;
66870;SDS011;53780;44.998;9.926;2022-07-01T05:41:37;9.32;;;2.72;;
66870;SDS011;53780;44.998;9.926;2022-07-01T05:44:40;5.93;;;2.50;;
66870;SDS011;53780;44.998;9.926;2022-07-01T05:47:44;7.70;;;2.63;;
66870;SDS011;53780;44.998;9.926;2022-07-01T05:50:49;6.55;;;2.80;;
66870;SDS011;53780;44.998;9.926;2022-07-01T05:53:53;6.68;;;2.83;;
66870;SDS011;53780;44.998;9.926;2022-07-01T05:56:57;6.80;;;2.47;;
66870;SDS011;53780;44.998;9.926;2022-07-01T06:00:01;10.90;;;2.77;;
66870;SDS011;53780;44.998;9.926;2022-07-01T06:03:15;9.10;;;2.92;;
66870;SDS011;53780;44.998;9.926;2022-07-01T06:06:19;6.35;;;2.30;;
66870;SDS011;53780;44.998;9.926;2022-07-01T06:09:22;7.63;;;2.50;;
66870;SDS011;53780;44.998;9.926;2022-07-01T06:12:26;4.97;;;2.03;;
66870;SDS011;53780;44.998;9.926;2022-07-01T06:15:30;4.80;;;1.73;;
66870;SDS011;53780;44.998;9.926;2022-07-01T06:18:34;4.28;;;1.33;;
66870;SDS011;53780;44.998;9.926;2022-07-01T06:21:38;4.30;;;1.10;;
66870;SDS011;53780;44.998;9.926;2022-07-01T06:24:42;3.22;;;1.10;;
66870;SDS011;53780;44.998;9.926;2022-07-01T06:27:46;3.50;;;1.00;;
66870;SDS011;53780;44.998;9.926;2022-07-01T06:30:50;3.57;;;1.30;;
66870;SDS011;53780;44.998;9.926;2022-07-01T06:33:58;4.88;;;1.40;;
66870;SDS011;53780;44.998;9.926;2022-07-01T06:37:01;6.07;;;1.30;;
66870;SDS011;53780;44.998;9.926;2022-07-01T06:40:07;4.30;;;1.30;;
66870;SDS011;53780;44.998;9.926;2022-07-01T06:43:11;4.30;;;1.38;;
66870;SDS011;53780;44.998;9.926;2022-07-01T06:46:15;6.10;;;1.57;;
66870;SDS011;53780;44.998;9.926;2022-07-01T06:49:19;4.07;;;1.30;;
66870;SDS011;53780;44.998;9.926;2022-07-01T06:52:23;4.72;;;1.58;;
66870;SDS011;53780;44.998;9.926;2022-07-01T06:55:28;5.90;;;1.63;;
66870;SDS011;53780;44.998;9.926;2022-07-01T06:58:32;4.95;;;1.40;;
66870;SDS011;53780;44.998;9.926;2022-07-01T07:01:36;8.90;;;1.70;;
66870;SDS011;53780;44.998;9.926;2022-07-01T07:04:40;8.25;;;2.03;;
66870;SDS011;53780;44.998;9.926;2022-07-01T07:07:44;6.38;;;2.20;;
66870;SDS011;53780;44.998;9.926;2022-07-01T07:10:48;7.55;;;2.13;;
66870;SDS011;53780;44.998;9.926;2022-07-01T07:13:52;7.15;;;2.40;;
66870;SDS011;53780;44.998;9.926;2022-07-01T07:16:56;7.00;;;2.83;;
66870;SDS011;53780;44.998;9.926;2022-07-01T07:20:00;9.63;;;2.65;;
66870;SDS011;53780;44.998;9.926;2022-07-01T07:23:04;10.02;;;2.50;;
66870;SDS011;53780;44.998;9.926;2022-07-01T07:26:08;5.78;;;2.35;;
66870;SDS011;53780;44.998;9.926;2022-07-01T07:29:13;4.43;;;2.20;;
66870;SDS011;53780;44.998;9.926;2022-07-01T07:32:17;6.33;;;2.40;;
66870;SDS011;53780;44.998;9.926;2022-07-01T07:35:21;8.45;;;2.53;;
66870;SDS011;53780;44.998;9.926;2022-07-01T07:38:25;6.72;;;2.40;;
66870;SDS011;53780;44.998;9.926;2022-07-01T07:41:29;6.97;;;2.70;;
66870;SDS011;53780;44.998;9.926;2022-07-01T07:44:33;6.28;;;2.15;;
66870;SDS011;53780;44.998;9.926;2022-07-01T07:47:37;6.77;;;2.10;;
66870;SDS011;53780;44.998;9.926;2022-07-01T07:50:41;4.88;;;2.22;;
66870;SDS011;53780;44.998;9.926;2022-07-01T07:53:45;6.35;;;2.10;;
66870;SDS011;53780;44.998;9.926;2022-07-01T07:56:49;5.75;;;2.30;;
66870;SDS011;53780;44.998;9.926;2022-07-01T07:59:53;4.78;;;2.00;;
66870;SDS011;53780;44.998;9.926;2022-07-01T08:02:57;5.37;;;2.03;;
66870;SDS011;53780;44.998;9.926;2022-07-01T08:06:01;7.25;;;2.13;;
66870;SDS011;53780;44.998;9.926;2022-07-01T08:09:05;6.88;;;1.88;;
66870;SDS011;53780;44.998;9.926;2022-07-01T08:12:09;8.10;;;1.90;;
66870;SDS011;53780;44.998;9.926;2022-07-01T08:15:14;4.57;;;1.90;;
66870;SDS011;53780;44.998;9.926;2022-07-01T08:18:18;10.20;;;2.63;;
66870;SDS011;53780;44.998;9.926;2022-07-01T08:21:22;9.10;;;2.00;;
66870;SDS011;53780;44.998;9.926;2022-07-01T08:24:29;9.70;;;1.83;;
66870;SDS011;53780;44.998;9.926;2022-07-01T08:27:33;5.05;;;1.50;;
66870;SDS011;53780;44.998;9.926;2022-07-01T08:30:36;4.30;;;1.55;;
66870;SDS011;53780;44.998;9.926;2022-07-01T08:33:42;5.70;;;1.90;;
66870;SDS011;53780;44.998;9.926;2022-07-01T08:36:46;5.60;;;1.70;;
66870;SDS011;53780;44.998;9.926;2022-07-01T08:39:50;6.30;;;1.90;;
66870;SDS011;53780;44.998;9.926;2022-07-01T08:43:11;7.00;;;1.90;;
66870;SDS011;53780;44.998;9.926;2022-07-01T08:46:16;6.68;;;1.70;;
66870;SDS011;53780;44.998;9.926;2022-07-01T08:49:20;4.27;;;1.97;;
66870;SDS011;53780;44.998;9.926;2022-07-01T08:52:24;6.40;;;1.88;;
66870;SDS011;53780;44.998;9.926;2022-07-01T08:55:28;6.85;;;1.77;;
66870;SDS011;53780;44.998;9.926;2022-07-01T08:58:33;6.22;;;1.80;;
66870;SDS011;53780;44.998;9.926;2022-07-01T09:01:37;5.75;;;1.80;;
66870;SDS011;53780;44.998;9.926;2022-07-01T09:04:42;5.43;;;1.50;;
66870;SDS011;53780;44.998;9.926;2022-07-01T09:07:46;4.47;;;1.90;;
66870;SDS011;53780;44.998;9.926;2022-07-01T09:10:52;4.68;;;2.00;;
66870;SDS011;53780;44.998;9.926;2022-07-01T09:17:10;4.82;;;1.70;;
66870;SDS011;53780;44.998;9.926;2022-07-01T09:20:27;6.30;;;1.70;;
66870;SDS011;53780;44.998;9.926;2022-07-01T09:23:33;5.00;;;1.90;;
66870;SDS011;53780;44.998;9.926;2022-07-01T09:26:38;5.95;;;1.88;;
66870;SDS011;53780;44.998;9.926;2022-07-01T09:33:03;4.10;;;1.88;;
66870;SDS011;53780;44.998;9.926;2022-07-01T09:36:28;8.00;;;2.30;;
66870;SDS011;53780;44.998;9.926;2022-07-01T09:39:54;5.07;;;1.88;;
66870;SDS011;53780;44.998;9.926;2022-07-01T09:42:57;5.82;;;2.63;;
66870;SDS011;53780;44.998;9.926;2022-07-01T09:46:08;7.63;;;2.20;;
66870;SDS011;53780;44.998;9.926;2022-07-01T09:49:13;6.00;;;2.40;;
66870;SDS011;53780;44.998;9.926;2022-07-01T09:52:17;5.80;;;1.90;;
66870;SDS011;53780;44.998;9.926;2022-07-01T09:55:21;6.03;;;1.98;;
66870;SDS011;53780;44.998;9.926;2022-07-01T09:58:26;6.00;;;2.33;;
66870;SDS011;53780;44.998;9.926;2022-07-01T10:01:31;4.95;;;2.25;;
66870;SDS011;53780;44.998;9.926;2022-07-01T10:04:39;6.53;;;1.80;;
66870;SDS011;53780;44.998;9.926;2022-07-01T10:14:24;5.40;;;2.10;;
66870;SDS011;53780;44.998;9.926;2022-07-01T10:17:29;4.30;;;2.28;;
66870;SDS011;53780;44.998;9.926;2022-07-01T10:20:36;4.47;;;2.20;;
66870;SDS011;53780;44.998;9.926;2022-07-01T10:23:41;6.40;;;2.00;;
66870;SDS011;53780;44.998;9.926;2022-07-01T10:26:46;4.45;;;2.10;;
66870;SDS011;53780;44.998;9.926;2022-07-01T10:36:35;3.95;;;2.47;;
66870;SDS011;53780;44.998;9.926;2022-07-01T10:43:02;4.75;;;2.15;;
66870;SDS011;53780;44.998;9.926;2022-07-01T10:46:06;4.35;;;2.10;;
66870;SDS011;53780;44.998;9.926;2022-07-01T10:49:11;4.00;;;2.22;;
66870;SDS011;53780;44.998;9.926;2022-07-01T10:52:15;4.90;;;1.92;;
66870;SDS011;53780;44.998;9.926;2022-07-01T10:55:21;4.97;;;2.23;;
66870;SDS011;53780;44.998;9.926;2022-07-01T10:58:39;5.60;;;2.38;;
66870;SDS011;53780;44.998;9.926;2022-07-01T11:01:43;4.75;;;2.25;;
66870;SDS011;53780;44.998;9.926;2022-07-01T11:04:47;4.90;;;2.33;;
66870;SDS011;53780;44.998;9.926;2022-07-01T11:07:54;3.97;;;1.98;;
66870;SDS011;53780;44.998;9.926;2022-07-01T11:10:59;4.03;;;2.23;;
66870;SDS011;53780;44.998;9.926;2022-07-01T11:14:08;5.50;;;2.63;;
66870;SDS011;53780;44.998;9.926;2022-07-01T11:17:12;8.18;;;2.10;;
66870;SDS011;53780;44.998;9.926;2022-07-01T11:20:17;4.22;;;2.08;;
66870;SDS011;53780;44.998;9.926;2022-07-01T11:23:21;5.30;;;2.00;;
66870;SDS011;53780;44.998;9.926;2022-07-01T11:26:25;5.87;;;2.00;;
66870;SDS011;53780;44.998;9.926;2022-07-01T11:29:29;5.45;;;2.22;;
66870;SDS011;53780;44.998;9.926;2022-07-01T11:32:33;4.38;;;2.08;;
66870;SDS011;53780;44.998;9.926;2022-07-01T11:35:44;4.78;;;2.30;;
66870;SDS011;53780;44.998;9.926;2022-07-01T11:39:06;3.83;;;2.10;;
66870;SDS011;53780;44.998;9.926;2022-07-01T11:42:28;6.87;;;2.10;;
66870;SDS011;53780;44.998;9.926;2022-07-01T11:45:32;5.03;;;2.25;;
66870;SDS011;53780;44.998;9.926;2022-07-01T11:48:37;6.43;;;2.13;;
66870;SDS011;53780;44.998;9.926;2022-07-01T11:51:44;5.22;;;2.10;;
66870;SDS011;53780;44.998;9.926;2022-07-01T11:54:58;5.75;;;2.47;;
66870;SDS011;53780;44.998;9.926;2022-07-01T11:58:02;7.77;;;2.77;;
66870;SDS011;53780;44.998;9.926;2022-07-01T12:01:05;6.10;;;2.30;;
66870;SDS011;53780;44.998;9.926;2022-07-01T12:04:11;8.38;;;2.65;;
66870;SDS011;53780;44.998;9.926;2022-07-01T12:07:20;4.88;;;2.30;;
66870;SDS011;53780;44.998;9.926;2022-07-01T12:10:28;6.35;;;3.17;;
66870;SDS011;53780;44.998;9.926;2022-07-01T12:13:34;6.77;;;2.47;;
66870;SDS011;53780;44.998;9.926;2022-07-01T12:16:40;5.03;;;2.78;;
66870;SDS011;53780;44.998;9.926;2022-07-01T12:19:45;5.85;;;2.80;;
66870;SDS011;53780;44.998;9.926;2022-07-01T12:22:51;7.57;;;2.30;;
66870;SDS011;53780;44.998;9.926;2022-07-01T12:25:54;5.43;;;2.20;;
66870;SDS011;53780;44.998;9.926;2022-07-01T12:28:58;6.10;;;2.30;;
66870;SDS011;53780;44.998;9.926;2022-07-01T12:32:03;4.90;;;2.22;;
66870;SDS011;53780;44.998;9.926;2022-07-01T12:35:09;4.85;;;2.65;;
66870;SDS011;53780;44.998;9.926;2022-07-01T12:38:33;6.80;;;2.00;;
66870;SDS011;53780;44.998;9.926;2022-07-01T12:41:38;4.55;;;2.50;;
66870;SDS011;53780;44.998;9.926;2022-07-01T12:44:45;7.30;;;2.07;;
66870;SDS011;53780;44.998;9.926;2022-07-01T12:47:50;3.92;;;2.08;;
66870;SDS011;53780;44.998;9.926;2022-07-01T12:50:55;4.95;;;2.03;;
66870;SDS011;53780;44.998;9.926;2022-07-01T12:54:00;6.20;;;2.33;;
66870;SDS011;53780;44.998;9.926;2022-07-01T12:57:04;5.63;;;2.50;;
66870;SDS011;53780;44.998;9.926;2022-07-01T13:00:08;7.03;;;2.43;;
66870;SDS011;53780;44.998;9.926;2022-07-01T13:03:12;6.43;;;1.95;;
66870;SDS011;53780;44.998;9.926;2022-07-01T13:06:17;4.00;;;2.03;;
66870;SDS011;53780;44.998;9.926;2022-07-01T13:09:21;6.47;;;2.17;;
66870;SDS011;53780;44.998;9.926;2022-07-01T13:12:25;5.32;;;2.13;;
66870;SDS011;53780;44.998;9.926;2022-07-01T13:15:29;5.37;;;2.10;;
66870;SDS011;53780;44.998;9.926;2022-07-01T13:18:33;7.88;;;2.03;;
66870;SDS011;53780;44.998;9.926;2022-07-01T13:21:36;5.20;;;2.05;;
66870;SDS011;53780;44.998;9.926;2022-07-01T13:24:41;7.20;;;2.35;;
66870;SDS011;53780;44.998;9.926;2022-07-01T13:27:45;7.28;;;2.53;;
66870;SDS011;53780;44.998;9.926;2022-07-01T13:30:51;4.43;;;2.10;;
66870;SDS011;53780;44.998;9.926;2022-07-01T13:33:55;7.82;;;2.22;;
66870;SDS011;53780;44.998;9.926;2022-07-01T13:36:59;6.18;;;2.42;;
66870;SDS011;53780;44.998;9.926;2022-07-01T13:40:03;4.72;;;1.90;;
66870;SDS011;53780;44.998;9.926;2022-07-01T13:43:09;4.65;;;2.50;;
66870;SDS011;53780;44.998;9.926;2022-07-01T13:46:13;5.80;;;2.23;;
66870;SDS011;53780;44.998;9.926;2022-07-01T13:49:16;4.13;;;2.00;;
66870;SDS011;53780;44.998;9.926;2022-07-01T13:52:20;4.88;;;2.20;;
66870;SDS011;53780;44.998;9.926;2022-07-01T13:55:24;4.95;;;2.05;;
66870;SDS011;53780;44.998;9.926;2022-07-01T13:58:28;5.78;;;2.08;;
66870;SDS011;53780;44.998;9.926;2022-07-01T14:01:33;4.10;;;2.10;;
66870;SDS011;53780;44.998;9.926;2022-07-01T14:04:38;5.60;;;2.13;;
66870;SDS011;53780;44.998;9.926;2022-07-01T14:07:42;7.13;;;2.40;;
66870;SDS011;53780;44.998;9.926;2022-07-01T14:10:46;5.72;;;2.30;;
66870;SDS011;53780;44.998;9.926;2022-07-01T14:13:50;5.20;;;2.40;;
66870;SDS011;53780;44.998;9.926;2022-07-01T14:16:54;6.13;;;2.33;;
66870;SDS011;53780;44.998;9.926;2022-07-01T14:19:58;5.75;;;2.40;;
66870;SDS011;53780;44.998;9.926;2022-07-01T14:23:02;5.13;;;2.42;;
66870;SDS011;53780;44.998;9.926;2022-07-01T14:26:07;6.13;;;2.53;;
66870;SDS011;53780;44.998;9.926;2022-07-01T14:29:11;6.75;;;2.38;;
66870;SDS011;53780;44.998;9.926;2022-07-01T14:32:14;6.57;;;2.30;;
66870;SDS011;53780;44.998;9.926;2022-07-01T14:35:18;6.03;;;2.65;;
66870;SDS011;53780;44.998;9.926;2022-07-01T14:38:22;4.78;;;2.42;;
66870;SDS011;53780;44.998;9.926;2022-07-01T14:41:26;4.45;;;2.50;;
66870;SDS011;53780;44.998;9.926;2022-07-01T14:44:32;6.18;;;2.50;;
66870;SDS011;53780;44.998;9.926;2022-07-01T14:47:36;7.57;;;2.30;;
66870;SDS011;53780;44.998;9.926;2022-07-01T14:50:40;5.28;;;2.42;;
66870;SDS011;53780;44.998;9.926;2022-07-01T14:53:45;3.90;;;2.25;;
66870;SDS011;53780;44.998;9.926;2022-07-01T14:56:49;5.90;;;2.30;;
66870;SDS011;53780;44.998;9.926;2022-07-01T14:59:52;4.63;;;2.28;;
66870;SDS011;53780;44.998;9.926;2022-07-01T15:02:56;3.77;;;2.00;;
66870;SDS011;53780;44.998;9.926;2022-07-01T15:06:00;5.70;;;2.65;;
66870;SDS011;53780;44.998;9.926;2022-07-01T15:09:03;5.45;;;2.13;;
66870;SDS011;53780;44.998;9.926;2022-07-01T15:12:07;4.95;;;2.22;;
66870;SDS011;53780;44.998;9.926;2022-07-01T15:15:11;5.35;;;2.20;;
66870;SDS011;53780;44.998;9.926;2022-07-01T15:18:15;5.67;;;2.10;;
66870;SDS011;53780;44.998;9.926;2022-07-01T15:21:19;4.82;;;2.22;;
66870;SDS011;53780;44.998;9.926;2022-07-01T15:24:23;8.18;;;2.33;;
66870;SDS011;53780;44.998;9.926;2022-07-01T15:27:27;5.45;;;2.40;;
66870;SDS011;53780;44.998;9.926;2022-07-01T15:30:31;8.27;;;2.22;;
66870;SDS011;53780;44.998;9.926;2022-07-01T15:33:35;6.17;;;2.10;;
66870;SDS011;53780;44.998;9.926;2022-07-01T15:36:39;6.60;;;2.33;;
66870;SDS011;53780;44.998;9.926;2022-07-01T15:39:42;5.13;;;2.38;;
66870;SDS011;53780;44.998;9.926;2022-07-01T15:42:46;6.28;;;2.45;;
66870;SDS011;53780;44.998;9.926;2022-07-01T15:45:50;7.22;;;2.85;;
66870;SDS011;53780;44.998;9.926;2022-07-01T15:48:54;7.13;;;2.47;;
66870;SDS011;53780;44.998;9.926;2022-07-01T15:51:57;5.10;;;2.13;;
66870;SDS011;53780;44.998;9.926;2022-07-01T15:55:02;6.03;;;2.70;;
66870;SDS011;53780;44.998;9.926;2022-07-01T15:58:07;6.13;;;2.25;;
66870;SDS011;53780;44.998;9.926;2022-07-01T16:01:11;5.32;;;2.70;;
66870;SDS011;53780;44.998;9.926;2022-07-01T16:04:15;7.00;;;2.70;;
66870;SDS011;53780;44.998;9.926;2022-07-01T16:07:19;7.00;;;2.80;;
66870;SDS011;53780;44.998;9.926;2022-07-01T16:10:40;6.85;;;2.20;;
66870;SDS011;53780;44.998;9.926;2022-07-01T16:13:52;6.32;;;2.42;;
66870;SDS011;53780;44.998;9.926;2022-07-01T16:16:58;4.93;;;2.63;;
66870;SDS011;53780;44.998;9.926;2022-07-01T16:20:06;4.27;;;2.47;;
66870;SDS011;53780;44.998;9.926;2022-07-01T16:23:11;7.68;;;2.75;;
66870;SDS011;53780;44.998;9.926;2022-07-01T16:26:18;7.22;;;2.60;;
66870;SDS011;53780;44.998;9.926;2022-07-01T16:29:22;4.43;;;2.60;;
66870;SDS011;53780;44.998;9.926;2022-07-01T16:32:26;4.70;;;2.50;;
66870;SDS011;53780;44.998;9.926;2022-07-01T16:35:36;7.43;;;2.93;;
66870;SDS011;53780;44.998;9.926;2022-07-01T16:42:10;5.72;;;2.70;;
66870;SDS011;53780;44.998;9.926;2022-07-01T16:45:16;6.57;;;2.88;;
66870;SDS011;53780;44.998;9.926;2022-07-01T16:48:22;7.18;;;3.15;;
66870;SDS011;53780;44.998;9.926;2022-07-01T16:51:31;5.13;;;2.67;;
66870;SDS011;53780;44.998;9.926;2022-07-01T16:54:38;5.78;;;2.50;;
66870;SDS011;53780;44.998;9.926;2022-07-01T16:57:44;7.07;;;3.00;;
66870;SDS011;53780;44.998;9.926;2022-07-01T17:00:50;4.75;;;2.92;;
66870;SDS011;53780;44.998;9.926;2022-07-01T17:03:55;6.90;;;2.60;;
66870;SDS011;53780;44.998;9.926;2022-07-01T17:07:02;6.70;;;3.10;;
66870;SDS011;53780;44.998;9.926;2022-07-01T17:10:08;6.45;;;3.58;;
66870;SDS011;53780;44.998;9.926;2022-07-01T17:13:14;9.57;;;3.50;;
66870;SDS011;53780;44.998;9.926;2022-07-01T17:16:19;7.93;;;3.42;;
66870;SDS011;53780;44.998;9.926;2022-07-01T17:19:24;7.97;;;3.72;;
66870;SDS011;53780;44.998;9.926;2022-07-01T17:25:52;6.15;;;3.42;;
66870;SDS011;53780;44.998;9.926;2022-07-01T17:29:02;7.35;;;3.47;;
66870;SDS011;53780;44.998;9.926;2022-07-01T17:32:09;7.15;;;3.00;;
66870;SDS011;53780;44.998;9.926;2022-07-01T17:35:15;6.05;;;3.05;;
66870;SDS011;53780;44.998;9.926;2022-07-01T17:38:21;5.67;;;3.10;;
66870;SDS011;53780;44.998;9.926;2022-07-01T17:41:37;7.40;;;3.22;;
66870;SDS011;53780;44.998;9.926;2022-07-01T17:44:43;7.47;;;3.55;;
66870;SDS011;53780;44.998;9.926;2022-07-01T17:47:50;8.23;;;3.35;;
66870;SDS011;53780;44.998;9.926;2022-07-01T17:50:57;6.38;;;2.85;;
66870;SDS011;53780;44.998;9.926;2022-07-01T17:54:03;5.47;;;2.77;;
66870;SDS011;53780;44.998;9.926;2022-07-01T17:57:08;7.20;;;2.65;;
66870;SDS011;53780;44.998;9.926;2022-07-01T18:00:11;6.47;;;3.10;;
66870;SDS011;53780;44.998;9.926;2022-07-01T18:03:16;7.57;;;3.10;;
66870;SDS011;53780;44.998;9.926;2022-07-01T18:06:20;8.55;;;3.28;;
66870;SDS011;53780;44.998;9.926;2022-07-01T18:09:24;6.87;;;3.37;;
66870;SDS011;53780;44.998;9.926;2022-07-01T18:12:32;7.13;;;3.28;;
66870;SDS011;53780;44.998;9.926;2022-07-01T18:15:37;8.52;;;3.72;;
66870;SDS011;53780;44.998;9.926;2022-07-01T18:18:44;8.38;;;3.80;;
66870;SDS011;53780;44.998;9.926;2022-07-01T18:21:53;7.50;;;3.83;;
66870;SDS011;53780;44.998;9.926;2022-07-01T18:24:59;9.77;;;3.90;;
66870;SDS011;53780;44.998;9.926;2022-07-01T18:28:04;6.95;;;4.07;;
66870;SDS011;53780;44.998;9.926;2022-07-01T18:31:14;7.50;;;4.05;;
66870;SDS011;53780;44.998;9.926;2022-07-01T18:34:32;7.38;;;4.25;;
66870;SDS011;53780;44.998;9.926;2022-07-01T18:37:46;9.48;;;4.38;;
66870;SDS011;53780;44.998;9.926;2022-07-01T18:40:53;6.07;;;3.80;;
66870;SDS011;53780;44.998;9.926;2022-07-01T18:43:57;10.13;;;3.30;;
66870;SDS011;53780;44.998;9.926;2022-07-01T18:47:01;7.15;;;2.88;;
66870;SDS011;53780;44.998;9.926;2022-07-01T18:50:06;6.93;;;2.90;;
66870;SDS011;53780;44.998;9.926;2022-07-01T18:53:12;5.95;;;3.60;;
66870;SDS011;53780;44.998;9.926;2022-07-01T18:56:16;8.20;;;4.00;;
66870;SDS011;53780;44.998;9.926;2022-07-01T18:59:21;9.68;;;3.58;;
66870;SDS011;53780;44.998;9.926;2022-07-01T19:02:26;6.30;;;3.20;;
66870;SDS011;53780;44.998;9.926;2022-07-01T19:05:30;8.88;;;3.15;;
66870;SDS011;53780;44.998;9.926;2022-07-01T19:08:34;6.57;;;2.90;;